Time;durP1;ratioP1;P1;durP2;ratioP2;P2;SDS_P1;SDS_P2;PMS_P1;PMS_P2;Temp;Humidity;BMP_temperature;BMP_pressure;BME280_temperature;BME280_humidity;BME280_pressure;Samples;Min_cycle;Max_cycle;Signal;HPM_P1;HPM_P2
2021/11/30 00:00:14;;;;;;;2.58;2.08;;;;;;;-4.98;82.84;98856.44;5043256;28;20030;-74
2021/11/30 00:02:40;;;;;;;5.15;3.17;;;;;;;-4.92;82.22;98838.03;5043144;28;20329;-74
2021/11/30 00:05:06;;;;;;;3.35;1.67;;;;;;;-5.00;82.40;98824.31;5043078;28;20095;-75
2021/11/30 00:07:33;;;;;;;1.85;1.75;;;;;;;-4.83;81.94;98799.47;5042997;28;20029;-75
2021/11/30 00:12:45;;;;;;;3.70;2.17;;;;;;;-4.94;82.60;98798.31;5041589;28;20076;-74
2021/11/30 00:15:10;;;;;;;4.40;2.30;;;;;;;-5.01;82.73;98780.44;5041716;28;20037;-75
2021/11/30 00:17:35;;;;;;;3.35;2.03;;;;;;;-4.84;81.87;98777.53;5043050;28;20025;-75
2021/11/30 00:20:03;;;;;;;2.05;1.50;;;;;;;-4.87;82.61;98774.88;5043120;28;20083;-75
2021/11/30 00:22:29;;;;;;;6.32;2.00;;;;;;;-4.82;82.30;98763.22;5045342;28;20026;-74
2021/11/30 00:24:54;;;;;;;5.07;2.35;;;;;;;-4.73;82.16;98753.31;5061862;28;20064;-75
2021/11/30 00:27:20;;;;;;;3.97;2.53;;;;;;;-4.65;81.85;98742.56;5045292;28;20034;-74
2021/11/30 00:29:45;;;;;;;4.50;2.22;;;;;;;-4.60;81.69;98749.44;5046554;28;20137;-75
2021/11/30 00:32:11;;;;;;;5.32;3.08;;;;;;;-4.60;81.76;98735.94;5046788;28;20021;-75
2021/11/30 00:34:37;;;;;;;2.70;2.15;;;;;;;-4.73;82.30;98732.22;5046584;28;20037;-75
2021/11/30 00:37:03;;;;;;;5.65;2.33;;;;;;;-4.70;82.50;98728.91;5061668;28;20029;-75
2021/11/30 00:39:28;;;;;;;4.88;2.72;;;;;;;-4.63;82.41;98726.56;5046555;28;20025;-76
2021/11/30 00:41:57;;;;;;;6.57;3.47;;;;;;;-4.48;82.06;98707.50;5045207;28;20041;-75
2021/11/30 00:44:26;;;;;;;2.17;1.58;;;;;;;-4.61;82.53;98704.69;5046440;28;20026;-74
2021/11/30 00:46:55;;;;;;;3.88;2.80;;;;;;;-4.56;82.56;98694.66;5046513;28;20025;-74
2021/11/30 00:49:21;;;;;;;5.30;2.40;;;;;;;-4.26;81.76;98698.75;5046467;28;20075;-75
2021/11/30 00:51:49;;;;;;;4.20;2.15;;;;;;;-4.44;82.12;98705.94;5046163;28;20018;-75
2021/11/30 00:54:16;;;;;;;1.73;1.23;;;;;;;-4.45;82.56;98691.53;5046313;28;20025;-75
2021/11/30 00:56:45;;;;;;;4.45;2.45;;;;;;;-4.45;83.02;98697.47;5046332;28;20053;-75
2021/11/30 00:59:10;;;;;;;4.03;2.22;;;;;;;-4.44;83.15;98680.59;5046303;28;20036;-76
2021/11/30 01:01:38;;;;;;;3.13;2.17;;;;;;;-4.21;82.43;98675.19;5044800;28;20085;-75
2021/11/30 01:04:05;;;;;;;5.68;2.38;;;;;;;-4.18;82.03;98666.00;5046077;28;20030;-75
2021/11/30 01:06:30;;;;;;;3.75;2.33;;;;;;;-4.09;81.44;98652.69;5045837;28;20056;-75
2021/11/30 01:08:55;;;;;;;5.53;2.65;;;;;;;-3.94;80.67;98643.69;5046006;28;20025;-74
2021/11/30 01:11:21;;;;;;;3.92;2.38;;;;;;;-3.95;81.86;98636.91;5046287;28;20021;-75
2021/11/30 01:13:47;;;;;;;2.92;1.95;;;;;;;-4.23;82.42;98625.34;5046328;28;20020;-76
2021/11/30 01:16:12;;;;;;;4.80;2.40;;;;;;;-4.26;82.70;98622.75;5046081;28;20104;-76
2021/11/30 01:18:37;;;;;;;3.28;1.85;;;;;;;-4.21;83.36;98599.16;5046021;28;20454;-76
2021/11/30 01:21:03;;;;;;;3.15;1.80;;;;;;;-4.02;82.63;98593.69;5060992;28;20093;-76
2021/11/30 01:23:32;;;;;;;2.90;2.00;;;;;;;-4.02;82.88;98583.53;5045737;28;20038;-75
2021/11/30 01:26:01;;;;;;;4.13;1.67;;;;;;;-3.84;81.85;98574.59;5043958;28;20029;-74
2021/11/30 01:28:27;;;;;;;3.25;2.10;;;;;;;-3.74;81.71;98560.44;5044248;28;20083;-74
2021/11/30 01:30:52;;;;;;;6.60;2.13;;;;;;;-3.95;82.40;98555.78;5060693;28;20045;-74
2021/11/30 01:33:18;;;;;;;2.25;1.67;;;;;;;-4.05;83.15;98560.66;5045252;28;20033;-74
2021/11/30 01:35:45;;;;;;;3.30;1.65;;;;;;;-4.01;83.76;98552.28;5043910;28;20472;-74
2021/11/30 01:38:11;;;;;;;3.35;2.20;;;;;;;-3.78;83.07;98544.28;5060773;28;20086;-74
2021/11/30 01:40:38;;;;;;;4.85;2.92;;;;;;;-3.84;83.44;98540.78;5045506;28;20026;-74
2021/11/30 01:43:05;;;;;;;4.00;2.10;;;;;;;-3.77;83.24;98522.34;5045404;28;20041;-74
2021/11/30 01:50:35;;;;;;;3.45;1.92;;;;;;;-3.44;82.87;98483.19;5045131;28;20035;-73
2021/11/30 01:53:01;;;;;;;4.60;2.15;;;;;;;-3.36;82.55;98481.63;5045340;28;20017;-74
2021/11/30 01:55:28;;;;;;;3.15;2.35;;;;;;;-3.37;82.79;98467.22;5045212;28;20030;-74
2021/11/30 01:57:54;;;;;;;4.38;1.95;;;;;;;-3.44;83.43;98456.94;5045118;28;20029;-74
2021/11/30 02:00:23;;;;;;;2.35;1.35;;;;;;;-3.25;83.15;98441.19;5044929;28;20018;-74
2021/11/30 02:02:49;;;;;;;4.95;3.03;;;;;;;-3.16;82.40;98424.38;5045038;28;20030;-74
2021/11/30 02:05:15;;;;;;;5.22;2.38;;;;;;;-3.37;83.25;98421.53;5045220;28;20096;-74
2021/11/30 02:07:41;;;;;;;4.07;1.73;;;;;;;-2.96;82.88;98424.69;5060099;28;20192;-74
2021/11/30 02:10:09;;;;;;;4.03;2.85;;;;;;;-2.93;82.86;98408.63;5044804;28;20043;-74
2021/11/30 02:12:35;;;;;;;2.03;1.35;;;;;;;-2.82;82.30;98394.41;5044985;28;20017;-74
2021/11/30 02:15:02;;;;;;;3.20;1.95;;;;;;;-2.77;82.21;98385.16;5044850;28;20330;-75
2021/11/30 02:17:27;;;;;;;3.67;2.60;;;;;;;-2.80;82.59;98362.25;5044839;28;20503;-74
2021/11/30 02:19:57;;;;;;;3.80;1.52;;;;;;;-2.84;82.75;98369.81;5060077;28;20025;-74
2021/11/30 02:22:23;;;;;;;2.65;1.80;;;;;;;-2.66;82.25;98342.09;5044589;28;20029;-74
2021/11/30 02:24:48;;;;;;;2.85;1.80;;;;;;;-2.75;82.34;98317.41;5044607;28;20028;-74
2021/11/30 02:27:13;;;;;;;2.22;1.80;;;;;;;-2.67;82.66;98317.53;5044501;28;20112;-74
2021/11/30 02:29:39;;;;;;;4.72;1.65;;;;;;;-2.69;82.22;98295.47;5044916;28;20049;-75
2021/11/30 02:32:06;;;;;;;3.22;2.35;;;;;;;-2.63;82.81;98282.84;5044547;28;20025;-73
2021/11/30 02:34:31;;;;;;;3.55;1.52;;;;;;;-2.55;82.63;98288.84;5044573;28;20026;-75
2021/11/30 02:37:05;;;;;;;3.13;2.35;;;;;;;-2.68;81.96;98257.38;5044208;28;20036;-75
2021/11/30 02:39:32;;;;;;;3.80;2.42;;;;;;;-2.74;83.13;98259.88;5044624;28;20029;-75
2021/11/30 02:41:58;;;;;;;3.05;1.83;;;;;;;-2.73;83.08;98248.84;5044486;28;20022;-75
2021/11/30 02:44:25;;;;;;;6.32;1.67;;;;;;;-2.40;82.24;98259.34;5043797;28;20032;-75
2021/11/30 02:46:56;;;;;;;6.05;2.97;;;;;;;-2.52;82.67;98243.16;5044012;28;20076;-74
2021/11/30 02:49:26;;;;;;;3.15;2.50;;;;;;;-2.60;83.66;98234.59;5059447;28;20033;-74
2021/11/30 02:52:02;;;;;;;3.45;2.63;;;;;;;-2.51;83.21;98221.97;5059109;28;20060;-75
2021/11/30 02:54:27;;;;;;;3.65;2.15;;;;;;;-2.24;82.83;98230.69;5044432;28;20029;-75
2021/11/30 02:56:56;;;;;;;7.85;1.83;;;;;;;-2.50;83.03;98208.44;5043861;28;20040;-75
2021/11/30 02:59:24;;;;;;;2.53;1.52;;;;;;;-2.49;83.70;98199.97;5042711;28;20056;-74
2021/11/30 03:01:59;;;;;;;3.45;2.42;;;;;;;-2.44;83.58;98182.22;5043894;28;20401;-74
2021/11/30 03:04:25;;;;;;;4.40;2.55;;;;;;;-2.44;82.93;98184.78;5043962;28;20026;-74
2021/11/30 03:06:51;;;;;;;3.03;2.38;;;;;;;-2.49;83.16;98164.41;5043477;28;20070;-76
2021/11/30 03:09:17;;;;;;;3.30;1.88;;;;;;;-2.53;83.53;98154.22;5043791;28;20033;-75
2021/11/30 03:11:43;;;;;;;5.00;2.42;;;;;;;-2.60;83.85;98147.38;5043939;28;20025;-79
2021/11/30 03:14:09;;;;;;;4.78;2.03;;;;;;;-2.43;83.60;98134.81;5044179;28;20032;-79
2021/11/30 03:16:35;;;;;;;3.55;2.30;;;;;;;-2.37;83.79;98127.22;5043553;28;20025;-79
2021/11/30 03:19:02;;;;;;;4.82;2.78;;;;;;;-2.53;84.18;98124.56;5044051;28;20047;-79
2021/11/30 03:21:27;;;;;;;7.05;2.80;;;;;;;-2.65;84.67;98110.06;5059142;28;20049;-79
2021/11/30 03:23:53;;;;;;;4.53;2.20;;;;;;;-2.56;85.04;98081.38;5044070;28;20022;-78
2021/11/30 03:26:18;;;;;;;4.07;1.83;;;;;;;-2.73;85.16;98035.50;5043593;28;20035;-78
2021/11/30 03:28:44;;;;;;;2.92;2.05;;;;;;;-2.44;84.64;98065.34;5058762;28;20018;-78
2021/11/30 03:31:21;;;;;;;5.32;2.33;;;;;;;-2.36;85.12;98057.75;5043678;28;20083;-78
2021/11/30 03:33:59;;;;;;;5.20;2.63;;;;;;;-2.39;84.93;98050.13;5043818;28;20009;-78
2021/11/30 03:36:24;;;;;;;7.82;3.63;;;;;;;-2.59;86.00;98045.78;5043445;28;20026;-78
2021/11/30 03:38:50;;;;;;;4.85;1.80;;;;;;;-2.35;85.22;98046.75;5043632;28;20067;-78
2021/11/30 03:41:15;;;;;;;5.95;2.55;;;;;;;-2.13;85.98;98032.47;5042376;28;20055;-79
2021/11/30 03:43:41;;;;;;;3.75;2.08;;;;;;;-2.06;85.53;98017.25;5043327;28;20052;-78
2021/11/30 03:46:06;;;;;;;5.43;1.98;;;;;;;-2.13;85.21;97999.41;5043391;28;20037;-78
2021/11/30 03:48:31;;;;;;;2.90;2.22;;;;;;;-2.25;86.43;97991.72;5043523;28;20022;-78
2021/11/30 03:50:57;;;;;;;3.05;1.70;;;;;;;-2.31;86.31;97979.84;5043065;28;20029;-78
2021/11/30 03:53:22;;;;;;;4.72;2.42;;;;;;;-2.37;86.65;97983.22;5043354;28;20374;-78
2021/11/30 03:55:48;;;;;;;4.53;1.65;;;;;;;-2.28;87.07;97971.38;5044336;28;20026;-78
2021/11/30 03:58:14;;;;;;;7.68;3.67;;;;;;;-2.40;87.14;97983.22;5047422;28;20083;-76
2021/11/30 04:00:42;;;;;;;3.65;1.90;;;;;;;-2.22;86.41;97965.47;5047203;28;20033;-78
2021/11/30 04:03:09;;;;;;;3.35;1.83;;;;;;;-2.25;86.69;97964.63;5047194;28;20036;-77
2021/11/30 04:05:34;;;;;;;2.50;1.30;;;;;;;-2.22;86.90;97945.16;5047437;28;20021;-78
2021/11/30 04:08:00;;;;;;;3.85;2.05;;;;;;;-2.27;86.67;97950.22;5047146;28;20033;-73
2021/11/30 04:10:25;;;;;;;4.45;2.00;;;;;;;-2.13;85.68;97935.00;5047296;28;20088;-77
2021/11/30 04:12:52;;;;;;;3.70;2.53;;;;;;;-2.33;86.75;97956.09;5046969;28;20017;-77
2021/11/30 04:15:18;;;;;;;2.70;1.65;;;;;;;-2.21;86.32;97929.03;5046946;28;20083;-78
2021/11/30 04:17:43;;;;;;;7.90;2.33;;;;;;;-2.20;86.41;97928.19;5046946;28;20029;-77
2021/11/30 04:20:10;;;;;;;3.20;1.85;;;;;;;-2.06;85.68;97916.38;5047031;28;20030;-78
2021/11/30 04:22:36;;;;;;;3.72;2.58;;;;;;;-2.30;86.25;97919.69;5046702;28;20022;-75
2021/11/30 04:25:04;;;;;;;2.70;1.65;;;;;;;-1.97;85.92;97901.97;5047117;28;20101;-76
2021/11/30 04:27:31;;;;;;;4.85;2.97;;;;;;;-1.98;85.17;97883.31;5046706;28;20230;-77
2021/11/30 04:29:56;;;;;;;3.25;2.00;;;;;;;-2.28;86.92;97888.34;5046483;28;20145;-78
2021/11/30 04:32:22;;;;;;;5.28;2.13;;;;;;;-2.43;87.71;97916.25;5046789;28;20093;-74
2021/11/30 04:34:47;;;;;;;3.45;2.20;;;;;;;-2.09;86.52;97875.69;5046680;28;20025;-77
2021/11/30 04:37:12;;;;;;;4.90;2.17;;;;;;;-2.14;86.99;97862.13;5046413;28;20034;-77
2021/11/30 04:39:38;;;;;;;3.60;1.60;;;;;;;-2.21;87.09;97850.25;5046577;28;20029;-77
2021/11/30 04:42:03;;;;;;;2.65;1.50;;;;;;;-2.42;88.04;97859.50;5046781;28;20108;-76
2021/11/30 04:44:31;;;;;;;4.63;2.10;;;;;;;-2.45;87.84;97849.34;5061902;28;20025;-76
2021/11/30 04:47:01;;;;;;;2.85;1.85;;;;;;;-2.20;87.37;97841.75;5046081;28;20013;-76
2021/11/30 04:50:16;;;;;;;3.05;2.08;;;;;;;-2.41;88.07;97843.44;5046507;28;20017;-75
2021/11/30 04:52:14;;;;;;;3.00;1.50;;;;;;;-2.58;88.17;97826.44;5041610;28;20652;-75
2021/11/30 04:54:40;;;;;;;3.15;1.90;;;;;;;-2.55;89.17;97848.44;5044855;28;20017;-77
2021/11/30 04:57:06;;;;;;;2.47;1.38;;;;;;;-2.66;88.90;97828.09;5061200;28;20018;-75
2021/11/30 04:59:32;;;;;;;4.72;2.08;;;;;;;-2.48;88.31;97801.91;5046201;28;20026;-74
2021/11/30 05:01:58;;;;;;;2.30;1.63;;;;;;;-2.36;87.24;97813.78;5061431;28;20025;-73
2021/11/30 05:04:24;;;;;;;1.70;1.60;;;;;;;-2.46;88.02;97845.94;5046228;28;20029;-73
2021/11/30 05:06:49;;;;;;;3.97;2.47;;;;;;;-2.54;88.15;97810.34;5045132;28;20056;-73
2021/11/30 05:09:15;;;;;;;11.52;2.45;;;;;;;-2.58;87.46;97770.56;5046113;28;20055;-75
2021/11/30 05:11:40;;;;;;;2.95;2.03;;;;;;;-2.41;88.18;97779.91;5061285;28;20384;-75
2021/11/30 05:14:06;;;;;;;3.00;1.85;;;;;;;-2.51;87.88;97781.59;5045924;28;20041;-73
2021/11/30 05:16:32;;;;;;;2.22;1.65;;;;;;;-2.50;87.99;97768.88;5045958;28;20037;-73
2021/11/30 05:18:58;;;;;;;5.03;1.75;;;;;;;-2.50;88.11;97756.19;5046030;28;20041;-77
2021/11/30 05:21:25;;;;;;;2.78;1.65;;;;;;;-2.47;87.96;97752.78;5045639;28;20025;-73
2021/11/30 05:23:50;;;;;;;3.10;1.85;;;;;;;-2.47;88.06;97752.78;5045477;28;20327;-78
2021/11/30 05:26:16;;;;;;;3.17;1.80;;;;;;;-2.57;88.13;97754.44;5045685;28;20048;-72
2021/11/30 05:28:42;;;;;;;2.13;1.45;;;;;;;-2.58;88.50;97765.47;5060588;28;20032;-74
2021/11/30 05:31:09;;;;;;;1.63;1.40;;;;;;;-2.52;88.82;97723.97;5045615;28;20028;-77
2021/11/30 05:33:34;;;;;;;3.45;1.73;;;;;;;-2.43;87.52;97702.81;5045820;28;20056;-75
2021/11/30 05:36:01;;;;;;;1.60;1.17;;;;;;;-2.50;87.64;97750.22;5045672;28;20413;-75
2021/11/30 05:38:27;;;;;;;2.38;1.75;;;;;;;-2.57;87.76;97741.75;5045839;28;20030;-74
2021/11/30 05:40:52;;;;;;;1.83;1.27;;;;;;;-2.67;88.28;97775.63;5045562;28;20029;-74
2021/11/30 05:43:18;;;;;;;3.90;2.20;;;;;;;-2.67;88.40;97765.47;5045431;28;20075;-77
2021/11/30 05:45:44;;;;;;;2.30;1.42;;;;;;;-2.66;88.44;97731.59;5045400;28;20513;-75
2021/11/30 05:48:10;;;;;;;2.63;1.13;;;;;;;-2.54;87.93;97706.19;5045353;28;20025;-76
2021/11/30 05:50:35;;;;;;;4.38;1.45;;;;;;;-2.59;87.60;97727.38;5045189;28;20032;-74
2021/11/30 05:53:01;;;;;;;2.33;1.20;;;;;;;-2.61;87.94;97722.28;5044858;28;20018;-75
2021/11/30 05:55:27;;;;;;;4.68;2.17;;;;;;;-2.77;88.60;97709.56;5044982;28;20426;-75
2021/11/30 05:57:52;;;;;;;1.48;1.13;;;;;;;-2.55;87.52;97722.28;5045366;28;20036;-77
2021/11/30 06:00:18;;;;;;;2.03;1.42;;;;;;;-2.54;87.19;97710.44;5045362;28;20026;-75
2021/11/30 06:05:16;;;;;;;2.63;1.63;;;;;;;-2.51;87.42;97713.81;5045341;28;20033;-77
2021/11/30 06:07:42;;;;;;;4.68;1.65;;;;;;;-2.71;87.93;97703.63;5060198;28;20025;-76
2021/11/30 06:10:07;;;;;;;2.33;1.55;;;;;;;-2.41;86.84;97699.41;5060296;28;20032;-76
2021/11/30 06:12:33;;;;;;;3.25;1.15;;;;;;;-2.34;86.13;97718.06;5060098;28;20035;-75
2021/11/30 06:14:58;;;;;;;2.35;1.17;;;;;;;-2.34;86.15;97687.56;5044952;28;20033;-76
2021/11/30 06:17:23;;;;;;;1.83;1.30;;;;;;;-2.13;85.07;97716.38;5044752;28;20056;-75
2021/11/30 06:19:49;;;;;;;2.55;1.60;;;;;;;-2.38;86.35;97686.72;5044491;28;20391;-75
2021/11/30 06:22:20;;;;;;;2.72;1.52;;;;;;;-2.30;85.53;97689.25;5044034;28;20140;-76
2021/11/30 06:24:46;;;;;;;1.25;1.15;;;;;;;-2.43;86.21;97688.41;5059525;28;20026;-76
2021/11/30 06:27:11;;;;;;;1.70;1.20;;;;;;;-2.27;85.66;97683.34;5059934;28;20091;-77
2021/11/30 06:29:37;;;;;;;2.85;1.40;;;;;;;-2.55;86.39;97689.25;5044394;28;20046;-76
2021/11/30 06:32:02;;;;;;;1.17;1.08;;;;;;;-2.25;85.46;97664.69;5059910;28;20056;-76
2021/11/30 06:34:28;;;;;;;2.90;1.80;;;;;;;-2.02;83.91;97688.38;5044501;28;20021;-76
2021/11/30 06:36:53;;;;;;;2.35;1.08;;;;;;;-2.21;84.75;97667.22;5044146;28;20056;-78
2021/11/30 06:39:18;;;;;;;1.70;1.15;;;;;;;-2.22;84.87;97674.00;5059613;28;20041;-77
2021/11/30 06:41:44;;;;;;;2.33;1.35;;;;;;;-2.19;83.96;97647.75;5044497;28;20036;-76
2021/11/30 06:44:09;;;;;;;1.58;1.00;;;;;;;-2.17;84.35;97654.50;5044046;28;20318;-75
2021/11/30 06:46:34;;;;;;;2.72;1.38;;;;;;;-2.15;84.33;97697.72;5044449;28;20159;-74
2021/11/30 06:49:00;;;;;;;1.73;0.95;;;;;;;-2.08;83.94;97656.19;5044386;28;20018;-77
2021/11/30 06:51:26;;;;;;;2.63;1.65;;;;;;;-2.13;84.30;97694.34;5044013;28;20474;-75
2021/11/30 06:53:51;;;;;;;2.88;1.42;;;;;;;-2.39;85.28;97695.19;5043909;28;20083;-75
2021/11/30 06:56:17;;;;;;;2.28;1.15;;;;;;;-2.15;84.40;97700.25;5044060;28;20450;-75
2021/11/30 06:58:42;;;;;;;1.85;1.35;;;;;;;-2.34;85.16;97702.81;5044154;28;20040;-76
2021/11/30 07:01:10;;;;;;;2.03;1.00;;;;;;;-2.50;85.96;97717.22;5044361;28;20021;-76
2021/11/30 07:03:36;;;;;;;2.45;1.73;;;;;;;-2.44;86.28;97701.09;5043905;28;20078;-76
2021/11/30 07:06:10;;;;;;;1.15;0.98;;;;;;;-2.13;84.38;97719.75;5043981;28;20071;-75
2021/11/30 07:14:05;;;;;;;2.90;1.53;;;;;;;-2.29;85.42;97724.00;5042763;28;20041;-74
2021/11/30 07:16:31;;;;;;;2.20;1.20;;;;;;;-2.47;86.21;97782.41;5042329;28;20117;-76
2021/11/30 07:18:57;;;;;;;1.77;1.20;;;;;;;-2.43;85.98;97738.41;5043612;28;20049;-75
2021/11/30 07:21:24;;;;;;;1.92;1.02;;;;;;;-2.45;86.06;97745.16;5043458;28;20033;-74
2021/11/30 07:23:49;;;;;;;3.03;1.08;;;;;;;-2.24;84.69;97747.69;5058896;28;20059;-70
2021/11/30 07:26:15;;;;;;;1.42;1.15;;;;;;;-2.36;85.08;97737.53;5043239;28;20093;-72
2021/11/30 07:28:40;;;;;;;2.72;1.20;;;;;;;-2.46;85.41;97758.72;5042835;28;20769;-70
2021/11/30 07:31:11;;;;;;;1.02;0.90;;;;;;;-2.44;84.91;97751.94;5043136;28;20029;-71
2021/11/30 07:33:39;;;;;;;3.47;1.67;;;;;;;-2.37;85.21;97774.84;5043305;28;20017;-71
2021/11/30 07:36:06;;;;;;;2.13;1.10;;;;;;;-2.50;85.19;97756.19;5042813;28;20044;-70
2021/11/30 07:38:32;;;;;;;1.83;1.35;;;;;;;-2.54;85.42;97767.16;5043402;28;20092;-70
2021/11/30 07:40:58;;;;;;;2.13;1.42;;;;;;;-2.33;83.96;97757.88;5043270;28;20033;-71
2021/11/30 07:43:24;;;;;;;1.90;1.30;;;;;;;-2.44;84.10;97762.94;5042952;28;20022;-70
2021/11/30 07:45:50;;;;;;;1.55;0.95;;;;;;;-2.32;84.07;97766.34;5043174;28;20085;-71
2021/11/30 07:48:16;;;;;;;1.48;1.20;;;;;;;-2.47;84.40;97777.31;5043056;28;20029;-70
2021/11/30 07:50:42;;;;;;;3.75;1.30;;;;;;;-2.45;84.42;97775.66;5043058;28;20065;-70
2021/11/30 07:53:08;;;;;;;1.73;1.00;;;;;;;-2.49;84.16;97790.88;5042995;28;20021;-69
2021/11/30 07:55:34;;;;;;;1.77;1.00;;;;;;;-2.44;83.75;97800.19;5043236;28;20436;-70
2021/11/30 07:58:05;;;;;;;2.97;1.27;;;;;;;-2.45;84.05;97798.53;5042905;28;20440;-71
2021/11/30 08:00:30;;;;;;;2.38;1.30;;;;;;;-2.42;83.58;97794.28;5043447;28;20029;-71
2021/11/30 08:02:56;;;;;;;1.13;1.02;;;;;;;-2.37;83.20;97804.47;5043390;28;20067;-70
2021/11/30 08:05:22;;;;;;;1.52;1.42;;;;;;;-2.34;83.31;97813.78;5043100;28;20484;-70
2021/11/30 08:07:47;;;;;;;1.27;0.95;;;;;;;-2.52;83.81;97795.97;5042986;28;20030;-70
2021/11/30 08:10:16;;;;;;;4.78;1.35;;;;;;;-2.51;84.09;97817.97;5043156;28;20030;-69
2021/11/30 08:12:42;;;;;;;2.47;1.08;;;;;;;-2.50;83.94;97817.16;5043291;28;20081;-69
2021/11/30 08:15:09;;;;;;;1.23;1.00;;;;;;;-2.44;83.52;97828.16;5043278;28;20036;-70
2021/11/30 08:17:34;;;;;;;1.58;1.15;;;;;;;-2.44;83.13;97833.22;5043099;28;20085;-68
2021/11/30 08:20:00;;;;;;;1.35;1.15;;;;;;;-2.54;83.84;97866.25;5042985;28;20040;-70
2021/11/30 08:22:26;;;;;;;1.17;0.90;;;;;;;-2.37;83.08;97843.44;5042908;28;20051;-71
2021/11/30 08:24:51;;;;;;;2.25;1.02;;;;;;;-2.22;82.41;97854.47;5043172;28;20538;-70
2021/11/30 08:27:19;;;;;;;1.38;1.10;;;;;;;-2.15;81.86;97860.41;5058251;28;20018;-72
2021/11/30 08:29:47;;;;;;;2.95;1.40;;;;;;;-2.35;82.30;97848.53;5042800;28;20116;-70
2021/11/30 08:32:12;;;;;;;0.93;0.80;;;;;;;-2.25;82.21;97875.66;5042878;28;20029;-69
2021/11/30 08:34:40;;;;;;;3.03;1.20;;;;;;;-2.27;82.26;97851.09;5042923;28;20025;-70
2021/11/30 08:37:06;;;;;;;0.80;0.70;;;;;;;-2.28;82.96;97865.47;5042667;28;20029;-71
2021/11/30 08:39:33;;;;;;;1.08;0.90;;;;;;;-2.19;82.63;97873.97;5042878;28;20018;-70
2021/11/30 08:42:00;;;;;;;1.35;0.90;;;;;;;-2.28;83.21;97870.56;5043213;28;20443;-70
2021/11/30 08:44:26;;;;;;;3.83;1.55;;;;;;;-2.21;83.12;97885.81;5046448;28;20326;-70
2021/11/30 08:46:51;;;;;;;1.02;0.82;;;;;;;-2.13;83.06;97895.19;5046281;28;20027;-70
2021/11/30 08:49:16;;;;;;;1.20;1.00;;;;;;;-2.16;83.14;97901.94;5046377;28;20089;-70
2021/11/30 08:51:42;;;;;;;1.15;0.80;;;;;;;-1.92;82.26;97902.84;5045920;28;20037;-72
2021/11/30 08:54:08;;;;;;;1.33;1.00;;;;;;;-2.09;82.80;97907.91;5046296;28;20558;-70
2021/11/30 08:56:33;;;;;;;1.83;1.10;;;;;;;-2.12;83.02;97922.28;5046196;28;20026;-71
2021/11/30 08:58:58;;;;;;;3.55;0.98;;;;;;;-2.21;83.11;97911.25;5046343;28;20055;-70
2021/11/30 09:01:24;;;;;;;1.30;1.10;;;;;;;-2.14;83.18;97916.34;5046359;28;20036;-68
2021/11/30 09:03:49;;;;;;;4.32;1.10;;;;;;;-2.22;83.23;97927.34;5046123;28;20030;-70
2021/11/30 09:06:15;;;;;;;1.98;1.38;;;;;;;-2.20;83.40;97953.59;5046008;28;20052;-71
2021/11/30 09:08:40;;;;;;;4.95;1.00;;;;;;;-2.25;83.68;97966.28;5046373;28;20416;-71
2021/11/30 09:11:05;;;;;;;1.75;1.10;;;;;;;-2.29;83.78;97965.47;5046127;28;20040;-70
2021/11/30 09:13:31;;;;;;;2.55;1.73;;;;;;;-2.31;83.83;97951.88;5045971;28;20010;-71
2021/11/30 09:15:57;;;;;;;4.03;1.80;;;;;;;-2.26;83.52;97969.69;5045976;28;20025;-71
2021/11/30 09:18:23;;;;;;;1.23;0.80;;;;;;;-2.31;83.74;97981.53;5060953;28;20024;-69
2021/11/30 09:20:48;;;;;;;1.92;1.23;;;;;;;-2.34;83.86;97969.66;5046161;28;20055;-70
2021/11/30 09:23:14;;;;;;;2.28;1.38;;;;;;;-2.34;83.60;97989.13;5045540;28;20021;-70
2021/11/30 09:25:40;;;;;;;2.03;1.13;;;;;;;-2.36;83.54;97973.88;5046009;28;20026;-71
2021/11/30 09:28:05;;;;;;;2.17;1.50;;;;;;;-2.32;83.48;97992.53;5045758;28;20110;-71
2021/11/30 09:30:34;;;;;;;1.95;1.63;;;;;;;-2.30;83.54;98004.41;5044193;28;20478;-70
2021/11/30 09:33:00;;;;;;;2.83;1.25;;;;;;;-2.43;83.68;98000.13;5045620;28;20017;-70
2021/11/30 09:35:25;;;;;;;2.83;1.60;;;;;;;-2.47;83.69;97988.22;5045728;28;20018;-71
2021/11/30 09:37:53;;;;;;;2.65;1.80;;;;;;;-2.50;83.69;97995.00;5044029;28;20034;-71
2021/11/30 09:40:26;;;;;;;1.75;0.95;;;;;;;-2.47;83.64;98008.56;5045549;28;20523;-70
2021/11/30 09:42:51;;;;;;;2.65;1.73;;;;;;;-2.43;83.76;98008.56;5045340;28;20105;-71
2021/11/30 09:45:18;;;;;;;2.90;1.80;;;;;;;-2.28;82.85;98030.69;5045199;28;20056;-70
2021/11/30 09:47:44;;;;;;;1.92;1.10;;;;;;;-2.41;83.20;98032.31;5045206;28;20473;-70
2021/11/30 09:50:13;;;;;;;1.17;1.08;;;;;;;-2.41;83.27;98039.09;5045520;28;20051;-70
2021/11/30 09:52:39;;;;;;;2.67;0.98;;;;;;;-2.32;83.10;98036.63;5045096;28;20088;-72
2021/11/30 09:55:06;;;;;;;2.20;1.48;;;;;;;-2.50;83.59;98029.72;5060305;28;20018;-70
2021/11/30 09:57:31;;;;;;;2.95;1.63;;;;;;;-2.41;83.44;98046.72;5045543;28;20017;-72
2021/11/30 09:59:58;;;;;;;2.38;1.20;;;;;;;-2.39;83.30;98039.94;5045571;28;20047;-70
2021/11/30 10:02:23;;;;;;;2.67;1.58;;;;;;;-2.35;83.03;98049.31;5045383;28;20025;-72
2021/11/30 10:04:48;;;;;;;1.70;1.20;;;;;;;-2.35;83.06;98046.75;5045158;28;20423;-71
2021/11/30 10:07:14;;;;;;;1.75;1.27;;;;;;;-2.33;82.45;98045.06;5044754;28;20059;-70
2021/11/30 10:09:42;;;;;;;5.38;1.88;;;;;;;-2.37;82.71;98056.06;5046261;28;20055;-70
2021/11/30 10:12:10;;;;;;;2.38;1.25;;;;;;;-2.37;82.74;98050.97;5046588;28;20033;-70
2021/11/30 10:14:42;;;;;;;2.47;0.98;;;;;;;-2.31;82.52;98068.81;5044973;28;20072;-71
2021/11/30 10:17:26;;;;;;;;;;;;;;;-2.15;81.68;98071.41;5060356;28;20350;-71
2021/11/30 10:19:58;;;;;;;1.15;1.00;;;;;;;-2.15;81.47;98056.16;5044841;28;19916;-71
2021/11/30 10:22:45;;;;;;;2.50;1.35;;;;;;;-2.21;81.80;98073.94;5044559;28;20025;-71
2021/11/30 10:25:34;;;;;;;3.67;1.30;;;;;;;-2.18;82.04;98081.56;5044799;28;20025;-71
2021/11/30 10:28:03;;;;;;;2.03;1.33;;;;;;;-2.08;82.40;98092.66;5044724;28;20022;-71
2021/11/30 10:30:31;;;;;;;2.03;1.38;;;;;;;-2.02;82.53;98091.00;5044353;28;20049;-70
2021/11/30 10:33:02;;;;;;;1.50;1.23;;;;;;;-2.00;82.48;98112.19;5043201;28;20048;-70
2021/11/30 10:35:28;;;;;;;2.83;1.50;;;;;;;-1.91;82.63;98108.00;5044704;28;20029;-71
2021/11/30 10:37:57;;;;;;;3.00;1.40;;;;;;;-1.81;83.10;98116.53;5059571;28;20429;-70
2021/11/30 10:40:26;;;;;;;1.50;1.30;;;;;;;-1.64;83.11;98114.91;5044310;28;20013;-71
2021/11/30 10:42:57;;;;;;;1.05;0.95;;;;;;;-1.56;82.55;98129.34;5044274;28;20429;-72
2021/11/30 10:45:33;;;;;;;3.20;1.75;;;;;;;-1.56;82.27;98145.47;5044118;28;20399;-71
2021/11/30 10:48:09;;;;;;;1.25;1.13;;;;;;;-1.57;81.75;98141.22;5044281;28;20029;-71
2021/11/30 10:50:40;;;;;;;2.75;2.08;;;;;;;-1.76;81.70;98143.66;5044466;28;20060;-70
2021/11/30 10:53:22;;;;;;;2.07;1.83;;;;;;;-1.90;81.43;98155.50;5044257;28;20481;-71
2021/11/30 10:55:51;;;;;;;2.53;1.65;;;;;;;-1.94;81.45;98153.75;5044376;28;20318;-71
2021/11/30 10:58:18;;;;;;;1.98;1.33;;;;;;;-1.93;81.49;98161.38;5044047;28;20333;-71
2021/11/30 11:00:44;;;;;;;4.45;1.73;;;;;;;-1.94;81.63;98169.88;5043735;28;20112;-71
2021/11/30 11:03:16;;;;;;;3.70;1.23;;;;;;;-1.93;81.41;98176.66;5043968;28;20053;-70
2021/11/30 11:08:59;;;;;;;2.38;1.60;;;;;;;-2.24;81.48;98139.16;5043948;28;20083;-70
2021/11/30 11:11:27;;;;;;;3.58;2.00;;;;;;;-1.79;81.17;98171.63;5059233;28;20025;-71
2021/11/30 11:13:53;;;;;;;1.65;0.98;;;;;;;-1.47;80.94;98187.91;5059043;28;20031;-71
2021/11/30 11:16:31;;;;;;;5.00;2.30;;;;;;;-1.03;79.88;98193.16;5059081;28;20049;-71
2021/11/30 11:18:59;;;;;;;3.90;1.08;;;;;;;-1.08;78.19;98195.69;5043858;28;20246;-71
2021/11/30 11:21:32;;;;;;;2.85;1.92;;;;;;;-1.34;78.20;98199.00;5043735;28;20030;-71
2021/11/30 11:24:07;;;;;;;2.63;2.20;;;;;;;-1.55;78.35;98213.31;5043800;28;20029;-71
2021/11/30 11:26:38;;;;;;;3.38;1.60;;;;;;;-1.70;78.89;98203.94;5043806;28;20049;-68
2021/11/30 11:29:12;;;;;;;2.85;1.77;;;;;;;-1.79;78.88;98209.78;5043424;28;20060;-71
2021/11/30 11:31:41;;;;;;;2.25;1.60;;;;;;;-1.90;79.40;98219.06;5043832;28;20088;-71
2021/11/30 11:34:08;;;;;;;3.10;1.90;;;;;;;-1.96;79.62;98216.47;5043676;28;20537;-70
2021/11/30 11:36:34;;;;;;;2.60;1.50;;;;;;;-1.95;79.78;98229.19;5043169;28;20038;-70
2021/11/30 11:39:00;;;;;;;6.53;1.83;;;;;;;-2.00;79.74;98243.59;5043757;28;20009;-71
2021/11/30 11:41:26;;;;;;;1.92;1.50;;;;;;;-2.04;79.50;98247.78;5043639;28;20541;-71
2021/11/30 11:43:52;;;;;;;2.78;1.67;;;;;;;-2.06;79.92;98248.63;5043510;28;20026;-71
2021/11/30 11:46:19;;;;;;;4.65;2.55;;;;;;;-1.99;79.61;98260.53;5043766;28;20021;-71
2021/11/30 11:48:55;;;;;;;2.53;1.60;;;;;;;-2.02;79.56;98257.97;5043470;28;20028;-70
2021/11/30 11:51:21;;;;;;;4.28;1.48;;;;;;;-2.09;79.26;98251.16;5043305;28;20026;-72